createdAt,value
2022-12-20T00:01:37.656Z,97630.34
2022-12-20T00:04:07.879Z,97624.28
2022-12-20T00:06:36.787Z,97618.84
2022-12-20T00:09:06.624Z,97622.03
2022-12-20T00:11:35.345Z,97619.09
2022-12-20T00:14:04.051Z,97621.97
2022-12-20T00:16:32.761Z,97619.09
2022-12-20T00:19:02.369Z,97616.75
2022-12-20T00:21:33.722Z,97609.38
2022-12-20T00:24:02.563Z,97603.44
2022-12-20T00:26:33.018Z,97601.81
2022-12-20T00:29:01.817Z,97595.16
2022-12-20T00:31:31.173Z,97589.97
2022-12-20T00:34:00.430Z,97589.31
2022-12-20T00:36:32.460Z,97597.47
2022-12-20T00:39:01.689Z,97582.78
2022-12-20T00:41:31.279Z,97583.38
2022-12-20T00:43:59.968Z,97580.50
2022-12-20T00:46:29.324Z,97570.19
2022-12-20T00:48:58.278Z,97566.06
2022-12-20T00:51:28.470Z,97559.50
2022-12-20T00:53:58.776Z,97571.16
2022-12-20T00:56:27.605Z,97555.75
2022-12-20T00:58:56.538Z,97568.25
2022-12-20T01:01:26.402Z,97560.06
2022-12-20T01:03:55.456Z,97549.81
2022-12-20T01:06:25.414Z,97557.59
2022-12-20T01:08:54.726Z,97549.09
2022-12-20T01:11:25.274Z,97562.81
2022-12-20T01:13:56.286Z,97557.84
2022-12-20T01:16:26.851Z,97574.47
2022-12-20T01:18:55.640Z,97599.00
2022-12-20T01:21:25.241Z,97600.56
2022-12-20T01:23:53.943Z,97607.97
2022-12-20T01:26:25.104Z,97602.47
2022-12-20T01:28:54.976Z,97604.34
2022-12-20T01:31:23.674Z,97597.50
2022-12-20T01:33:52.583Z,97599.97
2022-12-20T01:36:22.783Z,97598.59
2022-12-20T01:38:51.777Z,97601.66
2022-12-20T01:41:21.807Z,97582.34
2022-12-20T01:43:53.437Z,97586.56
2022-12-20T01:46:22.878Z,97589.34
2022-12-20T01:48:54.145Z,97585.34
2022-12-20T01:51:22.841Z,97586.31
2022-12-20T01:53:53.317Z,97584.13
2022-12-20T01:56:22.011Z,97580.59
2022-12-20T01:58:52.402Z,97575.75
2022-12-20T02:01:21.283Z,97573.19
2022-12-20T02:03:50.441Z,97568.22
2022-12-20T02:06:19.735Z,97553.66
2022-12-20T02:08:49.024Z,97565.19
2022-12-20T02:11:29.850Z,97558.41
2022-12-20T02:14:05.294Z,97563.75
2022-12-20T02:16:41.776Z,97554.47
2022-12-20T02:19:15.945Z,97571.44
2022-12-20T02:21:45.040Z,97562.47
2022-12-20T02:24:25.389Z,97561.78
2022-12-20T02:27:17.413Z,97561.78
2022-12-20T02:30:03.444Z,97548.09
2022-12-20T02:32:34.514Z,97539.97
2022-12-20T02:35:03.326Z,97530.56
2022-12-20T02:37:32.451Z,97521.06
2022-12-20T02:40:01.142Z,97524.94
2022-12-20T02:42:29.834Z,97519.75
2022-12-20T02:45:14.579Z,97530.13
2022-12-20T02:47:48.407Z,97539.91
2022-12-20T02:50:18.203Z,97534.47
2022-12-20T02:52:46.890Z,97524.34
2022-12-20T02:55:15.591Z,97517.19
2022-12-20T02:57:47.259Z,97516.63
2022-12-20T03:00:18.342Z,97515.81
2022-12-20T03:03:01.330Z,97511.19
2022-12-20T03:05:30.087Z,97523.72
2022-12-20T03:07:58.989Z,97520.94
2022-12-20T03:10:28.046Z,97514.63
2022-12-20T03:12:56.699Z,97523.59
2022-12-20T03:15:26.721Z,97519.13
2022-12-20T03:17:55.414Z,97522.25
2022-12-20T03:20:24.052Z,97528.47
2022-12-20T03:22:52.863Z,97531.81
2022-12-20T03:25:21.572Z,97535.25
2022-12-20T03:27:50.244Z,97535.34
2022-12-20T03:30:19.333Z,97543.13
2022-12-20T03:32:49.449Z,97535.03
2022-12-20T03:35:18.234Z,97541.31
2022-12-20T03:37:47.426Z,97534.50
2022-12-20T03:40:17.072Z,97541.78
2022-12-20T03:42:45.758Z,97535.34
2022-12-20T03:45:14.445Z,97541.44
2022-12-20T03:47:43.435Z,97541.09
2022-12-20T03:50:14.010Z,97555.31
2022-12-20T03:52:42.732Z,97546.44
2022-12-20T03:55:12.873Z,97543.13
2022-12-20T03:57:42.354Z,97537.25
2022-12-20T04:00:12.866Z,97518.59
2022-12-20T04:02:41.639Z,97522.09
2022-12-20T04:05:11.034Z,97525.78
2022-12-20T04:07:41.096Z,97526.91
2022-12-20T04:10:10.518Z,97531.13
2022-12-20T04:12:39.239Z,97537.44
2022-12-20T04:15:09.031Z,97532.25
2022-12-20T04:17:37.743Z,97537.78
2022-12-20T04:20:19.341Z,97544.94
2022-12-20T04:22:49.556Z,97548.66
2022-12-20T04:25:19.910Z,97542.75
2022-12-20T04:27:48.858Z,97546.28
2022-12-20T04:30:17.608Z,97542.75
2022-12-20T04:32:46.278Z,97541.81
2022-12-20T04:35:14.971Z,97530.28
2022-12-20T04:37:44.012Z,97534.28
2022-12-20T04:40:14.778Z,97532.31
2022-12-20T04:42:43.493Z,97532.28
2022-12-20T04:45:13.023Z,97528.72
2022-12-20T04:47:41.974Z,97520.81
2022-12-20T04:50:11.470Z,97510.84
2022-12-20T04:52:53.922Z,97517.31
2022-12-20T04:55:24.041Z,97520.47
2022-12-20T04:57:53.357Z,97524.53
2022-12-20T05:00:22.633Z,97531.56
2022-12-20T05:02:51.848Z,97522.25
2022-12-20T05:05:20.738Z,97527.47
2022-12-20T05:07:49.738Z,97522.63
2022-12-20T05:10:18.483Z,97516.09
2022-12-20T05:12:48.596Z,97511.88
2022-12-20T05:15:17.408Z,97502.22
2022-12-20T05:17:46.597Z,97498.25
2022-12-20T05:20:15.673Z,97492.53
2022-12-20T05:22:58.407Z,97503.22
2022-12-20T05:25:40.850Z,97503.34
2022-12-20T05:28:10.910Z,97497.75
2022-12-20T05:30:39.748Z,97500.09
2022-12-20T05:33:08.663Z,97495.59
2022-12-20T05:35:37.370Z,97492.84
2022-12-20T05:38:06.086Z,97483.81
2022-12-20T05:40:35.890Z,97478.59
2022-12-20T05:43:04.883Z,97479.00
2022-12-20T05:45:35.564Z,97473.78
2022-12-20T05:48:04.407Z,97466.75
2022-12-20T05:50:33.943Z,97470.47
2022-12-20T05:53:09.062Z,97466.00
2022-12-20T05:55:44.121Z,97468.78
2022-12-20T05:58:14.398Z,97479.22
2022-12-20T06:00:45.417Z,97465.03
2022-12-20T06:03:15.677Z,97462.47
2022-12-20T06:05:45.139Z,97470.47
2022-12-20T06:08:15.513Z,97472.44
2022-12-20T06:10:44.216Z,97470.25
2022-12-20T06:13:12.891Z,97463.59
2022-12-20T06:15:41.855Z,97455.50
2022-12-20T06:18:12.115Z,97465.41
2022-12-20T06:20:40.877Z,97457.41
2022-12-20T06:23:09.950Z,97443.94
2022-12-20T06:25:40.031Z,97453.06
2022-12-20T06:28:09.072Z,97455.72
2022-12-20T06:30:37.774Z,97452.50
2022-12-20T06:33:06.480Z,97460.97
2022-12-20T06:35:36.571Z,97451.66
2022-12-20T06:38:05.306Z,97457.34
2022-12-20T06:40:34.062Z,97456.38
2022-12-20T06:43:02.729Z,97463.53
2022-12-20T06:45:36.043Z,97454.91
2022-12-20T06:48:08.632Z,97452.38
2022-12-20T06:50:38.923Z,97446.44
2022-12-20T06:53:07.888Z,97436.47
2022-12-20T06:55:36.578Z,97424.47
2022-12-20T06:58:05.961Z,97429.31
2022-12-20T07:00:34.951Z,97431.50
2022-12-20T07:03:03.770Z,97430.66
2022-12-20T07:05:32.640Z,97429.31
2022-12-20T07:08:04.533Z,97430.28
2022-12-20T07:10:33.609Z,97424.72
2022-12-20T07:13:02.355Z,97422.66
2022-12-20T07:15:32.591Z,97419.00
2022-12-20T07:18:03.327Z,97415.25
2022-12-20T07:20:32.276Z,97407.72
2022-12-20T07:23:02.742Z,97398.41
2022-12-20T07:25:31.797Z,97407.50
2022-12-20T07:28:01.193Z,97413.31
2022-12-20T07:30:29.913Z,97407.00
2022-12-20T07:32:58.951Z,97406.03
2022-12-20T07:35:28.152Z,97411.00
2022-12-20T07:37:56.844Z,97416.69
2022-12-20T07:40:27.051Z,97401.41
2022-12-20T07:42:55.800Z,97396.56
2022-12-20T07:45:24.548Z,97420.47
2022-12-20T07:47:53.594Z,97401.38
2022-12-20T07:50:22.582Z,97381.25
2022-12-20T07:52:51.336Z,97394.13
2022-12-20T07:55:20.113Z,97395.84
2022-12-20T07:57:51.069Z,97392.53
2022-12-20T08:00:20.212Z,97402.66
2022-12-20T08:02:51.019Z,97399.97
2022-12-20T08:05:22.501Z,97392.69
2022-12-20T08:07:56.958Z,97399.59
2022-12-20T08:10:28.271Z,97393.91
2022-12-20T08:12:58.380Z,97408.56
2022-12-20T08:15:27.162Z,97402.41
2022-12-20T08:17:55.863Z,97410.03
2022-12-20T08:20:24.583Z,97405.91
2022-12-20T08:22:53.558Z,97400.56
2022-12-20T08:25:22.948Z,97412.00
2022-12-20T08:27:51.701Z,97403.13
2022-12-20T08:30:21.927Z,97407.13
2022-12-20T08:32:50.930Z,97404.69
2022-12-20T08:35:19.803Z,97395.59
2022-12-20T08:37:48.636Z,97399.13
2022-12-20T08:40:17.518Z,97397.41
2022-12-20T08:42:46.206Z,97399.84
2022-12-20T08:45:14.915Z,97399.50
2022-12-20T08:47:44.972Z,97386.88
2022-12-20T08:50:14.585Z,97388.22
2022-12-20T08:52:43.273Z,97381.63
2022-12-20T08:55:13.097Z,97387.22
2022-12-20T08:57:43.869Z,97390.25
2022-12-20T09:00:13.707Z,97393.16
2022-12-20T09:02:42.975Z,97388.91
2022-12-20T09:05:13.244Z,97388.53
2022-12-20T09:07:42.301Z,97396.66
2022-12-20T09:10:11.813Z,97394.00
2022-12-20T09:12:40.921Z,97386.34
2022-12-20T09:15:10.669Z,97391.22
2022-12-20T09:17:39.421Z,97386.97
2022-12-20T09:20:09.023Z,97387.06
2022-12-20T09:22:40.173Z,97388.53
2022-12-20T09:25:09.651Z,97382.47
2022-12-20T09:27:38.400Z,97382.97
2022-12-20T09:30:07.855Z,97383.66
2022-12-20T09:32:36.546Z,97374.44
2022-12-20T09:35:05.350Z,97383.19
2022-12-20T09:37:34.098Z,97375.75
2022-12-20T09:40:04.837Z,97375.75
2022-12-20T09:42:33.634Z,97380.75
2022-12-20T09:45:05.109Z,97382.69
2022-12-20T09:47:36.708Z,97379.91
2022-12-20T09:50:06.488Z,97370.56
2022-12-20T09:52:44.783Z,97370.91
2022-12-20T09:55:20.905Z,97380.97
2022-12-20T09:57:56.279Z,97366.13
2022-12-20T10:00:25.098Z,97364.19
2022-12-20T10:03:02.118Z,97373.28
2022-12-20T10:05:41.847Z,97355.66
2022-12-20T10:08:15.742Z,97362.72
2022-12-20T10:10:54.146Z,97368.78
2022-12-20T10:13:29.959Z,97367.88
2022-12-20T10:16:01.457Z,97352.66
2022-12-20T10:18:38.401Z,97351.16
2022-12-20T10:21:09.353Z,97358.06
2022-12-20T10:23:41.490Z,97361.81
2022-12-20T10:26:13.032Z,97349.41
2022-12-20T10:28:48.064Z,97340.13
2022-12-20T10:31:21.329Z,97318.81
2022-12-20T10:33:50.339Z,97314.19
2022-12-20T10:36:21.903Z,97306.09
2022-12-20T10:38:51.870Z,97314.91
2022-12-20T10:41:23.958Z,97303.69
2022-12-20T10:43:59.454Z,97312.72
2022-12-20T10:46:39.696Z,97299.34
2022-12-20T10:49:24.997Z,97288.13
2022-12-20T10:51:54.331Z,97291.75
2022-12-20T10:54:24.720Z,97286.66
2022-12-20T10:56:58.640Z,97280.38
2022-12-20T10:59:32.232Z,97281.19
2022-12-20T11:02:01.077Z,97280.38
2022-12-20T11:04:31.145Z,97263.06
2022-12-20T11:07:00.149Z,97264.31
2022-12-20T11:09:31.446Z,97258.44
2022-12-20T11:12:04.955Z,97255.22
2022-12-20T11:14:39.278Z,97251.38
2022-12-20T11:17:19.135Z,97259.03
2022-12-20T11:19:58.936Z,97244.75
2022-12-20T11:22:33.929Z,97244.06
2022-12-20T11:25:09.536Z,97232.69
2022-12-20T11:27:42.268Z,97249.16
2022-12-20T11:30:14.761Z,97241.06
2022-12-20T11:32:53.974Z,97239.22
2022-12-20T11:35:26.008Z,97227.63
2022-12-20T11:37:58.770Z,97230.66
2022-12-20T11:40:33.324Z,97239.34
2022-12-20T11:43:15.408Z,97239.97
2022-12-20T11:45:48.842Z,97223.63
2022-12-20T11:48:27.579Z,97227.13
2022-12-20T11:51:04.365Z,97232.31
2022-12-20T11:53:36.155Z,97226.91
2022-12-20T11:56:08.267Z,97226.66
2022-12-20T11:58:46.672Z,97222.69
2022-12-20T12:01:16.104Z,97215.69
2022-12-20T12:03:47.919Z,97211.34
2022-12-20T12:06:19.779Z,97210.22
2022-12-20T12:08:50.301Z,97212.28
2022-12-20T12:11:56.206Z,97209.47
2022-12-20T12:14:11.833Z,97206.97
2022-12-20T12:16:42.374Z,97209.03
2022-12-20T12:19:11.413Z,97203.28
2022-12-20T12:21:41.465Z,97211.72
2022-12-20T12:24:14.889Z,97208.50
2022-12-20T12:26:44.258Z,97210.50
2022-12-20T12:29:15.661Z,97213.00
2022-12-20T12:31:46.125Z,97221.63
2022-12-20T12:34:28.279Z,97211.41
2022-12-20T12:37:12.661Z,97210.75
2022-12-20T12:40:00.449Z,97204.34
2022-12-20T12:42:39.408Z,97208.38
2022-12-20T12:45:16.232Z,97204.81
2022-12-20T12:47:47.022Z,97199.78
2022-12-20T12:50:21.587Z,97202.31
2022-12-20T12:52:51.604Z,97206.13
2022-12-20T12:55:38.125Z,97208.38
2022-12-20T12:58:31.899Z,97199.78
2022-12-20T13:01:02.641Z,97209.22
2022-12-20T13:03:40.324Z,97209.94
2022-12-20T13:06:38.599Z,97207.81
2022-12-20T13:09:23.079Z,97210.19
2022-12-20T13:11:59.688Z,97211.19
2022-12-20T13:14:50.163Z,97206.00
2022-12-20T13:17:43.822Z,97214.03
2022-12-20T13:20:19.822Z,97210.19
2022-12-20T13:23:08.094Z,97213.16
2022-12-20T13:25:37.795Z,97211.97
2022-12-20T13:28:35.826Z,97219.03
2022-12-20T13:31:35.017Z,97209.84
2022-12-20T13:34:23.654Z,97210.03
2022-12-20T13:36:53.004Z,97204.09
2022-12-20T13:39:34.837Z,97202.47
2022-12-20T13:42:16.694Z,97199.25
2022-12-20T13:44:45.835Z,97199.25
2022-12-20T13:47:34.361Z,97202.72
2022-12-20T13:50:26.165Z,97207.81
2022-12-20T13:52:55.765Z,97202.75
2022-12-20T13:55:28.914Z,97192.44
2022-12-20T13:57:57.682Z,97193.19
2022-12-20T14:00:27.469Z,97190.38
2022-12-20T14:02:56.372Z,97192.31
2022-12-20T14:05:30.358Z,97193.22
2022-12-20T14:08:00.999Z,97182.50
2022-12-20T14:10:31.301Z,97178.84
2022-12-20T14:13:00.030Z,97187.47
2022-12-20T14:15:30.367Z,97190.16
2022-12-20T14:17:59.254Z,97181.53
2022-12-20T14:20:34.609Z,97181.34
2022-12-20T14:23:06.328Z,97170.13
2022-12-20T14:25:39.027Z,97183.94
2022-12-20T14:28:07.793Z,97184.44
2022-12-20T14:30:38.007Z,97181.19
2022-12-20T14:33:15.283Z,97181.91
2022-12-20T14:36:06.427Z,97187.88
2022-12-20T14:38:35.352Z,97187.66
2022-12-20T14:41:04.098Z,97185.84
2022-12-20T14:43:35.607Z,97189.34
2022-12-20T14:46:18.304Z,97183.63
2022-12-20T14:48:47.097Z,97182.75
2022-12-20T14:51:21.875Z,97181.63
2022-12-20T14:53:51.068Z,97173.84
2022-12-20T14:56:22.627Z,97174.28
2022-12-20T14:59:05.837Z,97170.38
2022-12-20T15:01:41.749Z,97155.56
2022-12-20T15:04:23.747Z,97151.91
2022-12-20T15:06:56.852Z,97155.94
2022-12-20T15:09:29.565Z,97151.66
2022-12-20T15:12:02.834Z,97148.34
2022-12-20T15:14:36.980Z,97155.09
2022-12-20T15:17:06.596Z,97152.56
2022-12-20T15:19:40.349Z,97150.78
2022-12-20T15:22:16.790Z,97144.84
2022-12-20T15:24:45.543Z,97153.97
2022-12-20T15:27:15.170Z,97137.81
2022-12-20T15:29:44.672Z,97143.94
2022-12-20T15:32:18.377Z,97146.81
2022-12-20T15:34:47.299Z,97140.66
2022-12-20T15:37:18.929Z,97147.72
2022-12-20T15:39:47.850Z,97148.66
2022-12-20T15:42:18.184Z,97154.72
2022-12-20T15:44:47.279Z,97151.50
2022-12-20T15:47:16.131Z,97154.00
2022-12-20T15:49:50.141Z,97152.88
2022-12-20T15:52:23.582Z,97150.06
2022-12-20T15:54:52.451Z,97145.50
2022-12-20T15:57:21.190Z,97151.75
2022-12-20T16:00:01.757Z,97151.13
2022-12-20T16:02:33.073Z,97138.47
2022-12-20T16:05:04.637Z,97140.19
2022-12-20T16:07:36.659Z,97129.78
2022-12-20T16:10:06.907Z,97129.88
2022-12-20T16:12:55.553Z,97115.53
2022-12-20T16:15:24.325Z,97121.84
2022-12-20T16:17:53.003Z,97118.91
2022-12-20T16:20:21.850Z,97119.84
2022-12-20T16:22:53.500Z,97130.44
2022-12-20T16:25:27.532Z,97137.31
2022-12-20T16:27:56.262Z,97136.69
2022-12-20T16:30:26.825Z,97140.06
2022-12-20T16:32:55.609Z,97142.94
2022-12-20T16:35:28.642Z,97136.06
2022-12-20T16:37:59.384Z,97131.38
2022-12-20T16:40:30.743Z,97134.19
2022-12-20T16:43:00.655Z,97127.88
2022-12-20T16:45:30.232Z,97132.81
2022-12-20T16:47:59.257Z,97133.13
2022-12-20T16:50:29.201Z,97136.91
2022-12-20T16:52:59.457Z,97134.94
2022-12-20T16:55:39.288Z,97130.88
2022-12-20T16:58:08.902Z,97122.59
2022-12-20T17:00:38.317Z,97121.75
2022-12-20T17:03:07.969Z,97121.88
2022-12-20T17:05:39.831Z,97126.38
2022-12-20T17:10:52.738Z,97130.50
2022-12-20T17:13:21.520Z,97126.41
2022-12-20T17:15:50.362Z,97127.34
2022-12-20T17:18:19.136Z,97123.81
2022-12-20T17:20:48.236Z,97119.34
2022-12-20T17:23:18.792Z,97125.38
2022-12-20T17:28:33.671Z,97119.59
2022-12-20T17:31:07.765Z,97118.94
2022-12-20T17:33:36.842Z,97117.84
2022-12-20T17:36:06.476Z,97123.31
2022-12-20T17:38:36.603Z,97117.13
2022-12-20T17:41:05.635Z,97116.66
2022-12-20T17:43:34.406Z,97120.59
2022-12-20T17:46:03.249Z,97111.19
2022-12-20T17:48:34.017Z,97115.00
2022-12-20T17:51:07.737Z,97105.56
2022-12-20T17:53:37.835Z,97106.69
2022-12-20T17:56:06.994Z,97102.56
2022-12-20T17:58:35.894Z,97096.31
2022-12-20T18:01:04.737Z,97090.66
2022-12-20T18:06:23.716Z,97093.19
2022-12-20T18:08:57.532Z,97084.13
2022-12-20T18:11:31.215Z,97082.03
2022-12-20T18:14:01.938Z,97088.91
2022-12-20T18:16:32.353Z,97094.28
2022-12-20T18:19:01.337Z,97094.25
2022-12-20T18:21:30.025Z,97088.66
2022-12-20T18:24:00.266Z,97092.28
2022-12-20T18:26:30.033Z,97092.31
2022-12-20T18:29:00.937Z,97097.41
2022-12-20T18:31:30.894Z,97099.09
2022-12-20T18:33:59.746Z,97091.75
2022-12-20T18:36:29.199Z,97085.41
2022-12-20T18:39:00.440Z,97085.41
2022-12-20T18:41:30.397Z,97083.72
2022-12-20T18:44:00.126Z,97090.91
2022-12-20T18:46:29.948Z,97088.53
2022-12-20T18:48:59.896Z,97089.25
2022-12-20T18:51:29.785Z,97090.56
2022-12-20T18:54:00.708Z,97094.25
2022-12-20T18:56:31.103Z,97094.25
2022-12-20T18:59:06.190Z,97094.81
2022-12-20T19:01:39.852Z,97100.25
2022-12-20T19:04:08.842Z,97095.66
2022-12-20T19:06:37.870Z,97093.00
2022-12-20T19:09:09.778Z,97088.59
2022-12-20T19:11:39.110Z,97091.56
2022-12-20T19:14:07.981Z,97094.94
2022-12-20T19:16:36.716Z,97093.00
2022-12-20T19:19:07.319Z,97091.16
2022-12-20T19:21:37.139Z,97093.84
2022-12-20T19:24:08.405Z,97083.53
2022-12-20T19:26:37.889Z,97095.41
2022-12-20T19:29:06.948Z,97094.81
2022-12-20T19:31:38.137Z,97092.69
2022-12-20T19:34:09.010Z,97091.88
2022-12-20T19:36:39.483Z,97094.53
2022-12-20T19:39:13.761Z,97092.09
2022-12-20T19:41:42.743Z,97084.59
2022-12-20T19:44:11.701Z,97093.13
2022-12-20T19:46:40.724Z,97096.50
2022-12-20T19:49:09.864Z,97104.66
2022-12-20T19:51:38.763Z,97119.00
2022-12-20T19:54:09.694Z,97122.25
2022-12-20T19:56:38.685Z,97123.97
2022-12-20T19:59:09.362Z,97117.03
2022-12-20T20:01:38.242Z,97120.88
2022-12-20T20:04:10.454Z,97119.16
2022-12-20T20:06:43.551Z,97107.78
2022-12-20T20:09:14.067Z,97105.84
2022-12-20T20:11:43.328Z,97104.00
2022-12-20T20:14:12.136Z,97108.13
2022-12-20T20:16:40.955Z,97105.16
2022-12-20T20:19:10.149Z,97105.97
2022-12-20T20:21:38.916Z,97114.31
2022-12-20T20:24:10.065Z,97120.09
2022-12-20T20:26:40.229Z,97116.28
2022-12-20T20:29:10.631Z,97116.47
2022-12-20T20:31:39.551Z,97111.22
2022-12-20T20:34:09.463Z,97122.78
2022-12-20T20:36:38.281Z,97110.00
2022-12-20T20:39:07.950Z,97093.53
2022-12-20T20:41:36.730Z,97108.19
2022-12-20T20:44:06.874Z,97103.53
2022-12-20T20:46:35.643Z,97117.19
2022-12-20T20:49:04.407Z,97112.13
2022-12-20T20:51:33.100Z,97109.44
2022-12-20T20:56:31.687Z,97101.66
2022-12-20T20:59:05.913Z,97092.97
2022-12-20T21:01:38.970Z,97091.31
2022-12-20T21:04:07.903Z,97090.59
2022-12-20T21:06:41.213Z,97092.16
2022-12-20T21:09:10.518Z,97089.19
2022-12-20T21:11:39.510Z,97090.00
2022-12-20T21:14:08.612Z,97090.69
2022-12-20T21:16:40.059Z,97094.50
2022-12-20T21:19:10.407Z,97088.78
2022-12-20T21:21:39.389Z,97080.88
2022-12-20T21:24:09.039Z,97087.38
2022-12-20T21:26:38.205Z,97082.56
2022-12-20T21:29:07.082Z,97068.06
2022-12-20T21:31:36.441Z,97074.28
2022-12-20T21:34:07.146Z,97078.91
2022-12-20T21:36:36.237Z,97075.81
2022-12-20T21:39:05.059Z,97080.47
2022-12-20T21:41:34.151Z,97077.94
2022-12-20T21:44:02.880Z,97069.78
2022-12-20T21:46:32.343Z,97080.88
2022-12-20T21:49:01.088Z,97085.13
2022-12-20T21:51:31.826Z,97077.22
2022-12-20T21:54:01.226Z,97080.47
2022-12-20T21:56:31.281Z,97069.06
2022-12-20T21:59:00.143Z,97063.72
2022-12-20T22:01:29.205Z,97065.69
2022-12-20T22:04:00.203Z,97076.53
2022-12-20T22:06:29.542Z,97066.66
2022-12-20T22:09:00.251Z,97072.78
2022-12-20T22:11:29.330Z,97070.19
2022-12-20T22:13:59.392Z,97074.69
2022-12-20T22:16:30.597Z,97076.66
2022-12-20T22:18:59.975Z,97071.63
2022-12-20T22:21:29.607Z,97068.34
2022-12-20T22:24:00.959Z,97072.00
2022-12-20T22:26:32.374Z,97072.13
2022-12-20T22:29:02.031Z,97073.97
2022-12-20T22:31:30.879Z,97082.72
2022-12-20T22:33:59.744Z,97085.25
2022-12-20T22:36:28.729Z,97079.06
2022-12-20T22:38:57.848Z,97074.81
2022-12-20T22:41:29.072Z,97076.78
2022-12-20T22:43:58.877Z,97083.84
2022-12-20T22:46:29.623Z,97082.84
2022-12-20T22:48:58.831Z,97090.34
2022-12-20T22:51:27.955Z,97076.13
2022-12-20T22:53:57.834Z,97083.84
2022-12-20T22:56:28.096Z,97082.63
2022-12-20T22:58:57.302Z,97080.66
2022-12-20T23:01:26.448Z,97082.72
2022-12-20T23:03:55.296Z,97084.31
2022-12-20T23:06:24.123Z,97087.84
2022-12-20T23:08:53.150Z,97082.00
2022-12-20T23:11:36.603Z,97091.38
2022-12-20T23:14:20.646Z,97091.59
2022-12-20T23:16:49.535Z,97095.44
2022-12-20T23:19:18.315Z,97085.31
2022-12-20T23:22:00.701Z,97085.00
2022-12-20T23:24:29.440Z,97084.16
2022-12-20T23:26:58.220Z,97089.66
2022-12-20T23:29:28.236Z,97098.69
2022-12-20T23:31:57.054Z,97091.06
2022-12-20T23:34:25.910Z,97093.19
2022-12-20T23:36:54.595Z,97093.47
2022-12-20T23:39:23.307Z,97086.88
2022-12-20T23:41:51.998Z,97094.47
2022-12-20T23:44:20.675Z,97088.84
2022-12-20T23:46:50.946Z,97090.78
2022-12-20T23:49:20.087Z,97094.59
2022-12-20T23:51:48.802Z,97089.94
2022-12-20T23:54:19.805Z,97092.22
2022-12-20T23:56:48.869Z,97093.53
2022-12-20T23:59:17.707Z,97097.41
